sensor_id;sensor_type;location;lat;lon;timestamp;temperature;humidity
46438;DHT22;32137;48.728;9.142;2023-07-08T00:01:20;23.30;1.00
46438;DHT22;32137;48.728;9.142;2023-07-08T00:03:46;23.20;1.00
46438;DHT22;32137;48.728;9.142;2023-07-08T00:06:13;23.30;1.00
46438;DHT22;32137;48.728;9.142;2023-07-08T00:08:39;23.30;1.00
46438;DHT22;32137;48.728;9.142;2023-07-08T00:11:09;23.20;1.00
46438;DHT22;32137;48.728;9.142;2023-07-08T00:13:35;23.10;1.00
46438;DHT22;32137;48.728;9.142;2023-07-08T00:16:00;23.10;1.00
46438;DHT22;32137;48.728;9.142;2023-07-08T00:18:26;23.10;1.00
46438;DHT22;32137;48.728;9.142;2023-07-08T00:20:51;23.00;1.00
46438;DHT22;32137;48.728;9.142;2023-07-08T00:23:17;23.00;1.00
46438;DHT22;32137;48.728;9.142;2023-07-08T00:25:47;23.10;1.00
46438;DHT22;32137;48.728;9.142;2023-07-08T00:28:17;22.90;1.00
46438;DHT22;32137;48.728;9.142;2023-07-08T00:30:43;22.80;1.00
46438;DHT22;32137;48.728;9.142;2023-07-08T00:33:09;22.70;1.00
46438;DHT22;32137;48.728;9.142;2023-07-08T00:35:35;22.70;1.00
46438;DHT22;32137;48.728;9.142;2023-07-08T00:38:01;22.70;1.00
46438;DHT22;32137;48.728;9.142;2023-07-08T00:40:28;22.70;1.00
46438;DHT22;32137;48.728;9.142;2023-07-08T00:42:55;22.70;1.00
46438;DHT22;32137;48.728;9.142;2023-07-08T00:45:27;22.60;1.00
46438;DHT22;32137;48.728;9.142;2023-07-08T00:47:54;22.60;1.00
46438;DHT22;32137;48.728;9.142;2023-07-08T00:50:21;22.60;1.00
46438;DHT22;32137;48.728;9.142;2023-07-08T00:52:46;22.50;1.00
46438;DHT22;32137;48.728;9.142;2023-07-08T00:55:12;22.50;1.00
46438;DHT22;32137;48.728;9.142;2023-07-08T00:57:39;22.50;1.00
46438;DHT22;32137;48.728;9.142;2023-07-08T01:00:06;22.40;1.00
46438;DHT22;32137;48.728;9.142;2023-07-08T01:02:35;22.30;1.00
46438;DHT22;32137;48.728;9.142;2023-07-08T01:05:02;22.20;1.00
46438;DHT22;32137;48.728;9.142;2023-07-08T01:07:29;22.20;1.00
46438;DHT22;32137;48.728;9.142;2023-07-08T01:09:57;22.20;1.00
46438;DHT22;32137;48.728;9.142;2023-07-08T01:12:29;22.20;1.00
46438;DHT22;32137;48.728;9.142;2023-07-08T01:14:56;22.10;1.00
46438;DHT22;32137;48.728;9.142;2023-07-08T01:17:21;22.10;1.00
46438;DHT22;32137;48.728;9.142;2023-07-08T01:19:47;22.10;1.00
46438;DHT22;32137;48.728;9.142;2023-07-08T01:22:14;22.10;1.00
46438;DHT22;32137;48.728;9.142;2023-07-08T01:24:42;22.00;1.00
46438;DHT22;32137;48.728;9.142;2023-07-08T01:27:10;21.90;1.00
46438;DHT22;32137;48.728;9.142;2023-07-08T01:29:36;21.90;1.00
46438;DHT22;32137;48.728;9.142;2023-07-08T01:32:02;21.90;1.00
46438;DHT22;32137;48.728;9.142;2023-07-08T01:34:28;21.90;1.00
46438;DHT22;32137;48.728;9.142;2023-07-08T01:36:54;22.00;1.00
46438;DHT22;32137;48.728;9.142;2023-07-08T01:39:21;22.00;1.00
46438;DHT22;32137;48.728;9.142;2023-07-08T01:41:47;22.00;1.00
46438;DHT22;32137;48.728;9.142;2023-07-08T01:44:20;21.90;1.00
46438;DHT22;32137;48.728;9.142;2023-07-08T01:46:46;21.80;1.00
46438;DHT22;32137;48.728;9.142;2023-07-08T01:49:11;21.80;1.00
46438;DHT22;32137;48.728;9.142;2023-07-08T01:51:37;21.70;1.00
46438;DHT22;32137;48.728;9.142;2023-07-08T01:54:02;21.60;1.00
46438;DHT22;32137;48.728;9.142;2023-07-08T01:56:28;21.60;1.00
46438;DHT22;32137;48.728;9.142;2023-07-08T01:58:53;21.60;1.00
46438;DHT22;32137;48.728;9.142;2023-07-08T02:01:19;21.60;1.00
46438;DHT22;32137;48.728;9.142;2023-07-08T02:03:44;21.50;1.00
46438;DHT22;32137;48.728;9.142;2023-07-08T02:06:11;21.50;1.00
46438;DHT22;32137;48.728;9.142;2023-07-08T02:08:37;21.50;1.00
46438;DHT22;32137;48.728;9.142;2023-07-08T02:11:02;21.40;1.00
46438;DHT22;32137;48.728;9.142;2023-07-08T02:13:28;21.30;1.00
46438;DHT22;32137;48.728;9.142;2023-07-08T02:15:53;21.30;1.00
46438;DHT22;32137;48.728;9.142;2023-07-08T02:18:19;21.30;1.00
46438;DHT22;32137;48.728;9.142;2023-07-08T02:20:45;21.30;1.00
46438;DHT22;32137;48.728;9.142;2023-07-08T02:23:10;21.30;1.00
46438;DHT22;32137;48.728;9.142;2023-07-08T02:25:36;21.30;1.00
46438;DHT22;32137;48.728;9.142;2023-07-08T02:28:02;21.30;1.00
46438;DHT22;32137;48.728;9.142;2023-07-08T02:30:27;21.30;1.00
46438;DHT22;32137;48.728;9.142;2023-07-08T02:32:53;21.30;1.00
46438;DHT22;32137;48.728;9.142;2023-07-08T02:35:25;21.30;99.90
46438;DHT22;32137;48.728;9.142;2023-07-08T02:37:52;21.30;99.90
46438;DHT22;32137;48.728;9.142;2023-07-08T02:40:17;21.30;99.90
46438;DHT22;32137;48.728;9.142;2023-07-08T02:42:43;21.30;99.90
46438;DHT22;32137;48.728;9.142;2023-07-08T02:45:08;21.20;99.90
46438;DHT22;32137;48.728;9.142;2023-07-08T02:47:34;21.20;99.90
46438;DHT22;32137;48.728;9.142;2023-07-08T02:49:59;21.10;99.90
46438;DHT22;32137;48.728;9.142;2023-07-08T02:52:25;21.10;99.90
46438;DHT22;32137;48.728;9.142;2023-07-08T02:54:50;21.20;99.90
46438;DHT22;32137;48.728;9.142;2023-07-08T02:57:15;21.20;99.90
46438;DHT22;32137;48.728;9.142;2023-07-08T02:59:41;21.20;99.90
46438;DHT22;32137;48.728;9.142;2023-07-08T03:02:06;21.00;99.90
46438;DHT22;32137;48.728;9.142;2023-07-08T03:04:32;21.00;99.90
46438;DHT22;32137;48.728;9.142;2023-07-08T03:06:57;21.00;99.90
46438;DHT22;32137;48.728;9.142;2023-07-08T03:09:24;21.10;99.90
46438;DHT22;32137;48.728;9.142;2023-07-08T03:11:49;21.00;99.90
46438;DHT22;32137;48.728;9.142;2023-07-08T03:14:15;21.10;99.90
46438;DHT22;32137;48.728;9.142;2023-07-08T03:16:40;21.10;99.90
46438;DHT22;32137;48.728;9.142;2023-07-08T03:19:07;21.10;99.90
46438;DHT22;32137;48.728;9.142;2023-07-08T03:21:32;21.00;99.90
46438;DHT22;32137;48.728;9.142;2023-07-08T03:23:58;21.10;99.90
46438;DHT22;32137;48.728;9.142;2023-07-08T03:26:24;21.00;99.90
46438;DHT22;32137;48.728;9.142;2023-07-08T03:28:50;21.10;99.90
46438;DHT22;32137;48.728;9.142;2023-07-08T03:31:16;21.00;99.90
46438;DHT22;32137;48.728;9.142;2023-07-08T03:33:41;21.10;99.90
46438;DHT22;32137;48.728;9.142;2023-07-08T03:36:14;21.00;99.90
46438;DHT22;32137;48.728;9.142;2023-07-08T03:38:53;21.00;99.90
46438;DHT22;32137;48.728;9.142;2023-07-08T03:41:20;20.90;99.90
46438;DHT22;32137;48.728;9.142;2023-07-08T03:43:46;20.90;99.90
46438;DHT22;32137;48.728;9.142;2023-07-08T03:46:12;20.90;99.90
46438;DHT22;32137;48.728;9.142;2023-07-08T03:48:38;20.90;99.90
46438;DHT22;32137;48.728;9.142;2023-07-08T03:51:04;20.90;99.90
46438;DHT22;32137;48.728;9.142;2023-07-08T03:53:30;20.90;99.90
46438;DHT22;32137;48.728;9.142;2023-07-08T03:55:55;20.90;99.90
46438;DHT22;32137;48.728;9.142;2023-07-08T03:58:21;20.90;99.90
46438;DHT22;32137;48.728;9.142;2023-07-08T04:00:46;20.80;99.90
46438;DHT22;32137;48.728;9.142;2023-07-08T04:03:12;20.70;99.90
46438;DHT22;32137;48.728;9.142;2023-07-08T04:05:37;20.70;99.90
46438;DHT22;32137;48.728;9.142;2023-07-08T04:08:03;20.70;99.90
46438;DHT22;32137;48.728;9.142;2023-07-08T04:10:28;20.80;99.90
46438;DHT22;32137;48.728;9.142;2023-07-08T04:12:53;20.80;99.90
46438;DHT22;32137;48.728;9.142;2023-07-08T04:15:19;20.90;99.90
46438;DHT22;32137;48.728;9.142;2023-07-08T04:17:50;20.80;99.90
46438;DHT22;32137;48.728;9.142;2023-07-08T04:20:17;20.90;99.90
46438;DHT22;32137;48.728;9.142;2023-07-08T04:22:43;20.90;99.90
46438;DHT22;32137;48.728;9.142;2023-07-08T04:25:10;20.90;99.90
46438;DHT22;32137;48.728;9.142;2023-07-08T04:27:37;21.00;99.90
46438;DHT22;32137;48.728;9.142;2023-07-08T04:30:02;21.10;99.90
46438;DHT22;32137;48.728;9.142;2023-07-08T04:32:29;21.10;99.90
46438;DHT22;32137;48.728;9.142;2023-07-08T04:34:55;21.20;99.90
46438;DHT22;32137;48.728;9.142;2023-07-08T04:37:20;21.20;99.90
46438;DHT22;32137;48.728;9.142;2023-07-08T04:39:46;21.30;99.90
46438;DHT22;32137;48.728;9.142;2023-07-08T04:42:11;21.30;99.90
46438;DHT22;32137;48.728;9.142;2023-07-08T04:44:41;21.40;99.90
46438;DHT22;32137;48.728;9.142;2023-07-08T04:47:06;21.50;99.90
46438;DHT22;32137;48.728;9.142;2023-07-08T04:49:34;21.50;99.90
46438;DHT22;32137;48.728;9.142;2023-07-08T04:52:00;21.50;99.90
46438;DHT22;32137;48.728;9.142;2023-07-08T04:54:27;21.60;99.90
46438;DHT22;32137;48.728;9.142;2023-07-08T04:56:53;21.50;99.90
46438;DHT22;32137;48.728;9.142;2023-07-08T04:59:20;21.50;99.90
46438;DHT22;32137;48.728;9.142;2023-07-08T05:01:45;21.50;99.90
46438;DHT22;32137;48.728;9.142;2023-07-08T05:04:12;21.50;99.90
46438;DHT22;32137;48.728;9.142;2023-07-08T05:06:38;21.50;99.90
46438;DHT22;32137;48.728;9.142;2023-07-08T05:09:03;21.50;99.90
46438;DHT22;32137;48.728;9.142;2023-07-08T05:11:30;21.50;99.90
46438;DHT22;32137;48.728;9.142;2023-07-08T05:13:56;21.40;99.90
46438;DHT22;32137;48.728;9.142;2023-07-08T05:16:21;21.40;99.90
46438;DHT22;32137;48.728;9.142;2023-07-08T05:18:47;21.50;99.90
46438;DHT22;32137;48.728;9.142;2023-07-08T05:21:12;21.50;99.90
46438;DHT22;32137;48.728;9.142;2023-07-08T05:23:38;21.60;99.90
46438;DHT22;32137;48.728;9.142;2023-07-08T05:26:04;21.60;99.90
46438;DHT22;32137;48.728;9.142;2023-07-08T05:28:30;21.60;99.90
46438;DHT22;32137;48.728;9.142;2023-07-08T05:30:55;21.70;99.90
46438;DHT22;32137;48.728;9.142;2023-07-08T05:33:21;21.80;99.90
46438;DHT22;32137;48.728;9.142;2023-07-08T05:35:47;21.80;99.90
46438;DHT22;32137;48.728;9.142;2023-07-08T05:38:12;21.80;99.90
46438;DHT22;32137;48.728;9.142;2023-07-08T05:40:38;21.90;99.90
46438;DHT22;32137;48.728;9.142;2023-07-08T05:43:03;21.90;99.90
46438;DHT22;32137;48.728;9.142;2023-07-08T05:45:29;21.90;99.90
46438;DHT22;32137;48.728;9.142;2023-07-08T05:47:54;21.90;99.90
46438;DHT22;32137;48.728;9.142;2023-07-08T05:50:19;21.90;99.90
46438;DHT22;32137;48.728;9.142;2023-07-08T05:52:45;22.00;99.90
46438;DHT22;32137;48.728;9.142;2023-07-08T05:55:10;22.00;99.90
46438;DHT22;32137;48.728;9.142;2023-07-08T05:57:36;22.00;99.90
46438;DHT22;32137;48.728;9.142;2023-07-08T06:00:02;22.00;99.90
46438;DHT22;32137;48.728;9.142;2023-07-08T06:02:27;22.00;99.90
46438;DHT22;32137;48.728;9.142;2023-07-08T06:04:53;22.10;99.90
46438;DHT22;32137;48.728;9.142;2023-07-08T06:07:18;22.10;99.90
46438;DHT22;32137;48.728;9.142;2023-07-08T06:09:44;22.10;99.90
46438;DHT22;32137;48.728;9.142;2023-07-08T06:12:10;22.10;99.90
46438;DHT22;32137;48.728;9.142;2023-07-08T06:14:35;22.10;99.90
46438;DHT22;32137;48.728;9.142;2023-07-08T06:17:01;22.10;99.90
46438;DHT22;32137;48.728;9.142;2023-07-08T06:19:26;22.20;99.90
46438;DHT22;32137;48.728;9.142;2023-07-08T06:21:52;22.30;99.90
46438;DHT22;32137;48.728;9.142;2023-07-08T06:24:17;22.30;99.90
46438;DHT22;32137;48.728;9.142;2023-07-08T06:26:43;22.40;99.90
46438;DHT22;32137;48.728;9.142;2023-07-08T06:29:08;22.50;99.90
46438;DHT22;32137;48.728;9.142;2023-07-08T06:31:33;22.50;99.90
46438;DHT22;32137;48.728;9.142;2023-07-08T06:34:00;22.60;99.90
46438;DHT22;32137;48.728;9.142;2023-07-08T06:36:25;22.70;99.90
46438;DHT22;32137;48.728;9.142;2023-07-08T06:38:51;22.70;99.90
46438;DHT22;32137;48.728;9.142;2023-07-08T06:41:16;22.60;99.90
46438;DHT22;32137;48.728;9.142;2023-07-08T06:43:41;22.60;99.90
46438;DHT22;32137;48.728;9.142;2023-07-08T06:46:07;22.70;99.90
46438;DHT22;32137;48.728;9.142;2023-07-08T06:48:32;22.80;99.90
46438;DHT22;32137;48.728;9.142;2023-07-08T06:50:58;22.90;99.90
46438;DHT22;32137;48.728;9.142;2023-07-08T06:53:24;22.90;99.90
46438;DHT22;32137;48.728;9.142;2023-07-08T06:55:49;23.10;99.90
46438;DHT22;32137;48.728;9.142;2023-07-08T06:58:15;23.10;99.90
46438;DHT22;32137;48.728;9.142;2023-07-08T07:00:44;23.20;99.90
46438;DHT22;32137;48.728;9.142;2023-07-08T07:03:10;23.20;99.90
46438;DHT22;32137;48.728;9.142;2023-07-08T07:05:35;23.20;99.90
46438;DHT22;32137;48.728;9.142;2023-07-08T07:08:01;23.30;99.90
46438;DHT22;32137;48.728;9.142;2023-07-08T07:10:26;23.30;99.90
46438;DHT22;32137;48.728;9.142;2023-07-08T07:12:52;23.30;99.90
46438;DHT22;32137;48.728;9.142;2023-07-08T07:15:17;23.30;99.90
46438;DHT22;32137;48.728;9.142;2023-07-08T07:17:43;23.40;99.90
46438;DHT22;32137;48.728;9.142;2023-07-08T07:20:08;23.40;99.90
46438;DHT22;32137;48.728;9.142;2023-07-08T07:22:34;23.40;99.90
46438;DHT22;32137;48.728;9.142;2023-07-08T07:25:00;23.40;99.90
46438;DHT22;32137;48.728;9.142;2023-07-08T07:27:26;23.50;99.90
46438;DHT22;32137;48.728;9.142;2023-07-08T07:29:51;23.50;99.90
46438;DHT22;32137;48.728;9.142;2023-07-08T07:32:18;23.60;99.90
46438;DHT22;32137;48.728;9.142;2023-07-08T07:34:47;23.60;99.90
46438;DHT22;32137;48.728;9.142;2023-07-08T07:37:13;23.60;99.90
46438;DHT22;32137;48.728;9.142;2023-07-08T07:39:39;23.60;99.90
46438;DHT22;32137;48.728;9.142;2023-07-08T07:42:04;23.60;99.90
46438;DHT22;32137;48.728;9.142;2023-07-08T07:44:30;23.70;99.90
46438;DHT22;32137;48.728;9.142;2023-07-08T07:46:55;23.70;99.90
46438;DHT22;32137;48.728;9.142;2023-07-08T07:49:21;23.70;99.90
46438;DHT22;32137;48.728;9.142;2023-07-08T07:51:46;23.70;99.90
46438;DHT22;32137;48.728;9.142;2023-07-08T07:54:12;23.70;99.90
46438;DHT22;32137;48.728;9.142;2023-07-08T07:56:37;23.70;99.90
46438;DHT22;32137;48.728;9.142;2023-07-08T07:59:03;23.80;99.90
46438;DHT22;32137;48.728;9.142;2023-07-08T08:01:28;23.90;99.90
46438;DHT22;32137;48.728;9.142;2023-07-08T08:03:54;23.90;99.90
46438;DHT22;32137;48.728;9.142;2023-07-08T08:06:19;23.90;99.90
46438;DHT22;32137;48.728;9.142;2023-07-08T08:08:45;23.90;99.90
46438;DHT22;32137;48.728;9.142;2023-07-08T08:11:11;23.90;99.90
46438;DHT22;32137;48.728;9.142;2023-07-08T08:13:36;23.90;99.90
46438;DHT22;32137;48.728;9.142;2023-07-08T08:16:02;23.90;99.90
46438;DHT22;32137;48.728;9.142;2023-07-08T08:18:28;23.80;99.90
46438;DHT22;32137;48.728;9.142;2023-07-08T08:20:53;23.90;99.90
46438;DHT22;32137;48.728;9.142;2023-07-08T08:23:19;23.90;99.90
46438;DHT22;32137;48.728;9.142;2023-07-08T08:25:44;23.90;99.90
46438;DHT22;32137;48.728;9.142;2023-07-08T08:28:10;23.90;99.90
46438;DHT22;32137;48.728;9.142;2023-07-08T08:30:35;23.80;99.90
46438;DHT22;32137;48.728;9.142;2023-07-08T08:33:01;23.90;99.90
46438;DHT22;32137;48.728;9.142;2023-07-08T08:35:27;23.90;99.90
46438;DHT22;32137;48.728;9.142;2023-07-08T08:37:52;23.90;99.90
46438;DHT22;32137;48.728;9.142;2023-07-08T08:40:19;23.90;99.90
46438;DHT22;32137;48.728;9.142;2023-07-08T08:42:46;23.90;99.90
46438;DHT22;32137;48.728;9.142;2023-07-08T08:45:17;23.80;99.90
46438;DHT22;32137;48.728;9.142;2023-07-08T08:47:47;23.90;99.90
46438;DHT22;32137;48.728;9.142;2023-07-08T08:52:50;23.80;99.90
46438;DHT22;32137;48.728;9.142;2023-07-08T08:55:15;23.80;99.90
46438;DHT22;32137;48.728;9.142;2023-07-08T08:58:02;23.90;99.90
46438;DHT22;32137;48.728;9.142;2023-07-08T09:00:34;23.90;99.90
46438;DHT22;32137;48.728;9.142;2023-07-08T09:03:04;24.00;99.90
46438;DHT22;32137;48.728;9.142;2023-07-08T09:05:33;24.20;99.90
46438;DHT22;32137;48.728;9.142;2023-07-08T09:10:45;24.30;99.90
46438;DHT22;32137;48.728;9.142;2023-07-08T09:13:16;24.50;99.90
46438;DHT22;32137;48.728;9.142;2023-07-08T09:15:44;24.60;99.90
46438;DHT22;32137;48.728;9.142;2023-07-08T09:18:17;24.80;99.90
46438;DHT22;32137;48.728;9.142;2023-07-08T09:20:44;25.00;99.90
46438;DHT22;32137;48.728;9.142;2023-07-08T09:23:24;25.20;99.90
46438;DHT22;32137;48.728;9.142;2023-07-08T09:26:02;25.40;99.90
46438;DHT22;32137;48.728;9.142;2023-07-08T09:28:39;25.50;99.90
46438;DHT22;32137;48.728;9.142;2023-07-08T09:31:06;25.70;99.90
46438;DHT22;32137;48.728;9.142;2023-07-08T09:33:31;25.70;99.90
46438;DHT22;32137;48.728;9.142;2023-07-08T09:35:57;25.70;99.90
46438;DHT22;32137;48.728;9.142;2023-07-08T09:38:22;25.80;99.90
46438;DHT22;32137;48.728;9.142;2023-07-08T09:40:48;25.70;99.90
46438;DHT22;32137;48.728;9.142;2023-07-08T09:45:41;25.50;99.90
46438;DHT22;32137;48.728;9.142;2023-07-08T09:48:14;25.40;99.90
46438;DHT22;32137;48.728;9.142;2023-07-08T09:50:40;25.30;99.90
46438;DHT22;32137;48.728;9.142;2023-07-08T09:53:11;25.30;99.90
46438;DHT22;32137;48.728;9.142;2023-07-08T09:55:37;25.30;99.90
46438;DHT22;32137;48.728;9.142;2023-07-08T09:58:03;25.40;99.90
46438;DHT22;32137;48.728;9.142;2023-07-08T10:00:33;25.50;99.90
46438;DHT22;32137;48.728;9.142;2023-07-08T10:03:02;25.60;99.90
46438;DHT22;32137;48.728;9.142;2023-07-08T10:05:35;25.70;99.90
46438;DHT22;32137;48.728;9.142;2023-07-08T10:08:02;25.80;99.90
46438;DHT22;32137;48.728;9.142;2023-07-08T10:10:31;25.90;99.90
46438;DHT22;32137;48.728;9.142;2023-07-08T10:13:04;26.00;99.90
46438;DHT22;32137;48.728;9.142;2023-07-08T10:15:33;26.10;99.90
46438;DHT22;32137;48.728;9.142;2023-07-08T10:17:59;26.10;99.90
46438;DHT22;32137;48.728;9.142;2023-07-08T10:20:25;26.10;99.90
46438;DHT22;32137;48.728;9.142;2023-07-08T10:25:53;26.00;99.90
46438;DHT22;32137;48.728;9.142;2023-07-08T10:28:24;26.00;99.90
46438;DHT22;32137;48.728;9.142;2023-07-08T10:30:55;26.00;99.90
46438;DHT22;32137;48.728;9.142;2023-07-08T10:33:28;25.90;99.90
46438;DHT22;32137;48.728;9.142;2023-07-08T10:38:55;26.00;99.90
46438;DHT22;32137;48.728;9.142;2023-07-08T10:51:25;26.30;99.90
46438;DHT22;32137;48.728;9.142;2023-07-08T10:53:57;26.40;99.90
46438;DHT22;32137;48.728;9.142;2023-07-08T10:56:33;26.60;99.90
46438;DHT22;32137;48.728;9.142;2023-07-08T11:01:36;26.80;99.90
46438;DHT22;32137;48.728;9.142;2023-07-08T11:06:57;26.90;99.90
46438;DHT22;32137;48.728;9.142;2023-07-08T11:09:33;27.10;99.90
46438;DHT22;32137;48.728;9.142;2023-07-08T11:12:01;27.30;99.90
46438;DHT22;32137;48.728;9.142;2023-07-08T11:14:31;27.40;99.90
46438;DHT22;32137;48.728;9.142;2023-07-08T11:19:32;27.80;99.90
46438;DHT22;32137;48.728;9.142;2023-07-08T11:22:00;28.10;99.90
46438;DHT22;32137;48.728;9.142;2023-07-08T11:27:05;28.60;99.90
46438;DHT22;32137;48.728;9.142;2023-07-08T11:29:45;28.80;99.90
46438;DHT22;32137;48.728;9.142;2023-07-08T11:32:14;28.90;99.90
46438;DHT22;32137;48.728;9.142;2023-07-08T11:34:41;29.00;99.90
46438;DHT22;32137;48.728;9.142;2023-07-08T11:37:08;29.10;99.90
46438;DHT22;32137;48.728;9.142;2023-07-08T11:44:33;29.50;99.90
46438;DHT22;32137;48.728;9.142;2023-07-08T11:46:58;30.60;99.90
46438;DHT22;32137;48.728;9.142;2023-07-08T11:49:24;33.60;99.40
46438;DHT22;32137;48.728;9.142;2023-07-08T11:51:49;35.80;96.50
46438;DHT22;32137;48.728;9.142;2023-07-08T11:54:28;37.90;92.60
46438;DHT22;32137;48.728;9.142;2023-07-08T11:59:23;41.30;80.80
46438;DHT22;32137;48.728;9.142;2023-07-08T12:01:53;42.60;75.80
46438;DHT22;32137;48.728;9.142;2023-07-08T12:04:26;43.60;72.70
46438;DHT22;32137;48.728;9.142;2023-07-08T12:10:05;45.40;65.70
46438;DHT22;32137;48.728;9.142;2023-07-08T12:12:33;46.70;81.40
46438;DHT22;32137;48.728;9.142;2023-07-08T12:15:04;47.30;87.50
46438;DHT22;32137;48.728;9.142;2023-07-08T12:17:30;47.80;88.80
46438;DHT22;32137;48.728;9.142;2023-07-08T12:19:56;48.90;90.20
46438;DHT22;32137;48.728;9.142;2023-07-08T12:22:23;49.50;90.10
46438;DHT22;32137;48.728;9.142;2023-07-08T12:24:48;49.50;88.40
46438;DHT22;32137;48.728;9.142;2023-07-08T12:27:14;50.40;87.20
46438;DHT22;32137;48.728;9.142;2023-07-08T12:29:40;50.80;85.10
46438;DHT22;32137;48.728;9.142;2023-07-08T12:32:08;51.10;83.50
46438;DHT22;32137;48.728;9.142;2023-07-08T12:34:34;51.20;82.10
46438;DHT22;32137;48.728;9.142;2023-07-08T12:36:59;51.90;80.80
46438;DHT22;32137;48.728;9.142;2023-07-08T13:54:56;52.10;79.20
46438;DHT22;32137;48.728;9.142;2023-07-08T13:57:23;40.10;92.20
46438;DHT22;32137;48.728;9.142;2023-07-08T13:59:49;38.80;94.10
46438;DHT22;32137;48.728;9.142;2023-07-08T14:04:40;37.80;94.50
46438;DHT22;32137;48.728;9.142;2023-07-08T14:07:10;38.50;93.20
46438;DHT22;32137;48.728;9.142;2023-07-08T14:09:38;39.50;92.00
46438;DHT22;32137;48.728;9.142;2023-07-08T14:12:04;40.60;90.40
46438;DHT22;32137;48.728;9.142;2023-07-08T14:14:29;41.30;87.90
46438;DHT22;32137;48.728;9.142;2023-07-08T14:16:55;41.10;88.90
46438;DHT22;32137;48.728;9.142;2023-07-08T14:19:24;40.20;90.90
46438;DHT22;32137;48.728;9.142;2023-07-08T14:21:55;39.00;92.50
46438;DHT22;32137;48.728;9.142;2023-07-08T14:24:21;38.00;93.70
46438;DHT22;32137;48.728;9.142;2023-07-08T14:26:47;37.30;83.10
46438;DHT22;32137;48.728;9.142;2023-07-08T14:29:13;37.00;81.80
46438;DHT22;32137;48.728;9.142;2023-07-08T14:31:38;36.60;82.00
46438;DHT22;32137;48.728;9.142;2023-07-08T14:34:08;36.50;82.50
46438;DHT22;32137;48.728;9.142;2023-07-08T14:36:34;36.70;81.20
46438;DHT22;32137;48.728;9.142;2023-07-08T14:39:00;37.00;79.90
46438;DHT22;32137;48.728;9.142;2023-07-08T14:41:26;36.90;79.60
46438;DHT22;32137;48.728;9.142;2023-07-08T14:43:51;36.70;79.30
46438;DHT22;32137;48.728;9.142;2023-07-08T14:46:17;36.70;78.50
46438;DHT22;32137;48.728;9.142;2023-07-08T14:48:42;36.60;79.00
46438;DHT22;32137;48.728;9.142;2023-07-08T14:51:08;36.50;78.60
46438;DHT22;32137;48.728;9.142;2023-07-08T14:53:33;36.40;77.00
46438;DHT22;32137;48.728;9.142;2023-07-08T14:55:59;36.20;77.40
46438;DHT22;32137;48.728;9.142;2023-07-08T14:58:27;35.80;78.80
46438;DHT22;32137;48.728;9.142;2023-07-08T15:00:55;35.60;78.50
46438;DHT22;32137;48.728;9.142;2023-07-08T15:03:21;35.30;70.90
46438;DHT22;32137;48.728;9.142;2023-07-08T15:05:47;35.00;68.50
46438;DHT22;32137;48.728;9.142;2023-07-08T15:08:13;35.00;67.50
46438;DHT22;32137;48.728;9.142;2023-07-08T15:10:38;34.90;66.60
46438;DHT22;32137;48.728;9.142;2023-07-08T15:13:08;34.70;66.50
46438;DHT22;32137;48.728;9.142;2023-07-08T15:15:34;34.60;65.20
46438;DHT22;32137;48.728;9.142;2023-07-08T15:18:11;34.50;64.40
46438;DHT22;32137;48.728;9.142;2023-07-08T15:20:37;34.50;64.10
46438;DHT22;32137;48.728;9.142;2023-07-08T15:23:03;34.60;64.20
46438;DHT22;32137;48.728;9.142;2023-07-08T15:25:28;34.90;63.80
46438;DHT22;32137;48.728;9.142;2023-07-08T15:27:55;35.30;62.20
46438;DHT22;32137;48.728;9.142;2023-07-08T15:30:22;35.70;61.90
46438;DHT22;32137;48.728;9.142;2023-07-08T15:32:47;36.00;61.10
46438;DHT22;32137;48.728;9.142;2023-07-08T15:35:20;36.30;60.60
46438;DHT22;32137;48.728;9.142;2023-07-08T15:37:46;36.50;59.90
46438;DHT22;32137;48.728;9.142;2023-07-08T15:40:13;36.60;59.10
46438;DHT22;32137;48.728;9.142;2023-07-08T15:42:39;36.70;68.90
46438;DHT22;32137;48.728;9.142;2023-07-08T15:45:21;36.80;58.60
46438;DHT22;32137;48.728;9.142;2023-07-08T15:47:47;36.80;59.20
46438;DHT22;32137;48.728;9.142;2023-07-08T15:50:13;36.90;58.40
46438;DHT22;32137;48.728;9.142;2023-07-08T15:52:39;36.90;58.30
46438;DHT22;32137;48.728;9.142;2023-07-08T15:55:05;37.00;68.40
46438;DHT22;32137;48.728;9.142;2023-07-08T15:57:31;37.00;58.10
46438;DHT22;32137;48.728;9.142;2023-07-08T15:59:57;36.90;58.00
46438;DHT22;32137;48.728;9.142;2023-07-08T16:02:24;36.80;58.10
46438;DHT22;32137;48.728;9.142;2023-07-08T16:04:51;36.80;57.90
46438;DHT22;32137;48.728;9.142;2023-07-08T16:07:16;36.70;58.00
46438;DHT22;32137;48.728;9.142;2023-07-08T16:09:41;36.60;58.10
46438;DHT22;32137;48.728;9.142;2023-07-08T16:12:07;36.60;58.10
46438;DHT22;32137;48.728;9.142;2023-07-08T16:14:34;36.60;58.00
46438;DHT22;32137;48.728;9.142;2023-07-08T16:16:59;36.50;59.40
46438;DHT22;32137;48.728;9.142;2023-07-08T16:19:25;36.40;58.90
46438;DHT22;32137;48.728;9.142;2023-07-08T16:21:50;36.30;58.20
46438;DHT22;32137;48.728;9.142;2023-07-08T16:24:16;36.20;58.50
46438;DHT22;32137;48.728;9.142;2023-07-08T16:26:41;36.10;59.30
46438;DHT22;32137;48.728;9.142;2023-07-08T16:29:08;36.20;58.70
46438;DHT22;32137;48.728;9.142;2023-07-08T16:31:37;36.20;58.90
46438;DHT22;32137;48.728;9.142;2023-07-08T16:34:03;36.10;58.90
46438;DHT22;32137;48.728;9.142;2023-07-08T16:36:29;36.10;58.70
46438;DHT22;32137;48.728;9.142;2023-07-08T16:38:54;36.00;57.80
46438;DHT22;32137;48.728;9.142;2023-07-08T16:41:22;35.90;58.70
46438;DHT22;32137;48.728;9.142;2023-07-08T16:43:47;35.80;58.70
46438;DHT22;32137;48.728;9.142;2023-07-08T16:46:15;35.70;58.80
46438;DHT22;32137;48.728;9.142;2023-07-08T16:48:41;35.60;59.60
46438;DHT22;32137;48.728;9.142;2023-07-08T16:51:11;35.50;58.40
46438;DHT22;32137;48.728;9.142;2023-07-08T16:53:37;35.40;58.60
46438;DHT22;32137;48.728;9.142;2023-07-08T16:56:03;35.30;59.20
46438;DHT22;32137;48.728;9.142;2023-07-08T16:58:28;35.30;59.00
46438;DHT22;32137;48.728;9.142;2023-07-08T17:00:54;35.30;59.00
46438;DHT22;32137;48.728;9.142;2023-07-08T17:03:20;35.20;58.90
46438;DHT22;32137;48.728;9.142;2023-07-08T17:05:46;35.20;58.60
46438;DHT22;32137;48.728;9.142;2023-07-08T17:08:12;35.10;58.10
46438;DHT22;32137;48.728;9.142;2023-07-08T17:10:38;35.10;58.30
46438;DHT22;32137;48.728;9.142;2023-07-08T17:13:04;35.00;58.00
46438;DHT22;32137;48.728;9.142;2023-07-08T17:15:29;34.90;57.70
46438;DHT22;32137;48.728;9.142;2023-07-08T17:17:57;34.90;57.90
46438;DHT22;32137;48.728;9.142;2023-07-08T17:20:24;34.80;57.60
46438;DHT22;32137;48.728;9.142;2023-07-08T17:22:50;34.80;57.70
46438;DHT22;32137;48.728;9.142;2023-07-08T17:25:16;34.70;58.60
46438;DHT22;32137;48.728;9.142;2023-07-08T17:27:42;34.70;57.70
46438;DHT22;32137;48.728;9.142;2023-07-08T17:30:08;34.70;57.80
46438;DHT22;32137;48.728;9.142;2023-07-08T17:32:34;34.60;57.20